sensor_id;sensor_type;location;lat;lon;timestamp;temperature;humidity
12922;DHT22;6528;48.086;16.282;2022-10-13T00:00:08;23.90;82.80
12922;DHT22;6528;48.086;16.282;2022-10-13T00:02:35;23.80;82.70
12922;DHT22;6528;48.086;16.282;2022-10-13T00:05:02;23.80;82.70
12922;DHT22;6528;48.086;16.282;2022-10-13T00:07:29;23.80;82.80
12922;DHT22;6528;48.086;16.282;2022-10-13T00:09:55;23.80;82.80
12922;DHT22;6528;48.086;16.282;2022-10-13T00:12:22;23.80;82.80
12922;DHT22;6528;48.086;16.282;2022-10-13T00:14:49;23.80;82.80
12922;DHT22;6528;48.086;16.282;2022-10-13T00:17:15;23.90;82.90
12922;DHT22;6528;48.086;16.282;2022-10-13T00:19:42;23.80;82.80
12922;DHT22;6528;48.086;16.282;2022-10-13T00:22:09;23.80;82.90
12922;DHT22;6528;48.086;16.282;2022-10-13T00:24:36;23.80;82.90
12922;DHT22;6528;48.086;16.282;2022-10-13T00:27:02;23.80;82.90
12922;DHT22;6528;48.086;16.282;2022-10-13T00:29:29;23.80;82.90
12922;DHT22;6528;48.086;16.282;2022-10-13T00:31:56;23.80;82.90
12922;DHT22;6528;48.086;16.282;2022-10-13T00:34:22;23.80;82.90
12922;DHT22;6528;48.086;16.282;2022-10-13T00:36:49;23.80;82.90
12922;DHT22;6528;48.086;16.282;2022-10-13T00:39:16;23.80;82.90
12922;DHT22;6528;48.086;16.282;2022-10-13T00:41:43;23.80;83.70
12922;DHT22;6528;48.086;16.282;2022-10-13T00:47:16;23.80;83.00
12922;DHT22;6528;48.086;16.282;2022-10-13T00:49:43;23.80;83.00
12922;DHT22;6528;48.086;16.282;2022-10-13T00:52:10;23.80;83.00
12922;DHT22;6528;48.086;16.282;2022-10-13T00:54:37;23.80;83.00
12922;DHT22;6528;48.086;16.282;2022-10-13T00:57:05;23.80;83.00
12922;DHT22;6528;48.086;16.282;2022-10-13T00:59:33;23.80;83.00
12922;DHT22;6528;48.086;16.282;2022-10-13T01:02:01;23.70;82.90
12922;DHT22;6528;48.086;16.282;2022-10-13T01:04:40;23.80;83.00
12922;DHT22;6528;48.086;16.282;2022-10-13T01:07:09;23.80;83.90
12922;DHT22;6528;48.086;16.282;2022-10-13T01:09:36;23.70;82.90
12922;DHT22;6528;48.086;16.282;2022-10-13T01:15:17;23.80;83.10
12922;DHT22;6528;48.086;16.282;2022-10-13T01:20:41;23.70;83.00
12922;DHT22;6528;48.086;16.282;2022-10-13T01:31:54;23.70;82.90
12922;DHT22;6528;48.086;16.282;2022-10-13T01:34:34;23.70;82.90
12922;DHT22;6528;48.086;16.282;2022-10-13T01:39:50;23.60;82.90
12922;DHT22;6528;48.086;16.282;2022-10-13T01:42:36;23.60;82.90
12922;DHT22;6528;48.086;16.282;2022-10-13T01:45:07;23.60;82.90
12922;DHT22;6528;48.086;16.282;2022-10-13T01:47:37;23.70;83.80
12922;DHT22;6528;48.086;16.282;2022-10-13T01:50:06;23.60;82.90
12922;DHT22;6528;48.086;16.282;2022-10-13T01:52:36;23.70;83.00
12922;DHT22;6528;48.086;16.282;2022-10-13T01:55:08;23.70;82.90
12922;DHT22;6528;48.086;16.282;2022-10-13T01:57:38;23.60;82.90
12922;DHT22;6528;48.086;16.282;2022-10-13T02:00:11;23.60;82.90
12922;DHT22;6528;48.086;16.282;2022-10-13T02:03:04;23.60;82.80
12922;DHT22;6528;48.086;16.282;2022-10-13T02:05:47;23.60;82.90
12922;DHT22;6528;48.086;16.282;2022-10-13T02:11:25;23.60;82.90
12922;DHT22;6528;48.086;16.282;2022-10-13T02:14:09;23.60;82.90
12922;DHT22;6528;48.086;16.282;2022-10-13T02:16:41;23.60;82.80
12922;DHT22;6528;48.086;16.282;2022-10-13T02:19:13;23.60;82.90
12922;DHT22;6528;48.086;16.282;2022-10-13T02:21:41;23.60;82.90
12922;DHT22;6528;48.086;16.282;2022-10-13T02:24:08;23.60;82.90
12922;DHT22;6528;48.086;16.282;2022-10-13T02:26:36;23.60;82.80
12922;DHT22;6528;48.086;16.282;2022-10-13T02:29:11;23.60;82.90
12922;DHT22;6528;48.086;16.282;2022-10-13T02:31:39;23.60;82.90
12922;DHT22;6528;48.086;16.282;2022-10-13T02:34:06;23.60;82.90
12922;DHT22;6528;48.086;16.282;2022-10-13T02:36:33;23.60;82.80
12922;DHT22;6528;48.086;16.282;2022-10-13T02:39:00;23.60;82.80
12922;DHT22;6528;48.086;16.282;2022-10-13T02:41:27;23.60;82.80
12922;DHT22;6528;48.086;16.282;2022-10-13T02:43:54;23.50;82.70
12922;DHT22;6528;48.086;16.282;2022-10-13T02:46:21;23.60;82.80
12922;DHT22;6528;48.086;16.282;2022-10-13T02:48:47;23.50;82.70
12922;DHT22;6528;48.086;16.282;2022-10-13T02:51:14;23.50;82.70
12922;DHT22;6528;48.086;16.282;2022-10-13T02:53:41;23.50;82.70
12922;DHT22;6528;48.086;16.282;2022-10-13T02:56:08;23.50;82.70
12922;DHT22;6528;48.086;16.282;2022-10-13T02:58:35;23.50;82.70
12922;DHT22;6528;48.086;16.282;2022-10-13T03:01:13;23.50;82.70
12922;DHT22;6528;48.086;16.282;2022-10-13T03:03:40;23.50;82.70
12922;DHT22;6528;48.086;16.282;2022-10-13T03:06:08;23.50;82.70
12922;DHT22;6528;48.086;16.282;2022-10-13T03:08:34;23.50;82.70
12922;DHT22;6528;48.086;16.282;2022-10-13T03:11:01;23.50;82.70
12922;DHT22;6528;48.086;16.282;2022-10-13T03:13:28;23.50;82.70
12922;DHT22;6528;48.086;16.282;2022-10-13T03:15:55;23.50;82.70
12922;DHT22;6528;48.086;16.282;2022-10-13T03:18:22;23.50;82.70
12922;DHT22;6528;48.086;16.282;2022-10-13T03:21:00;23.50;82.70
12922;DHT22;6528;48.086;16.282;2022-10-13T03:23:27;23.50;82.70
12922;DHT22;6528;48.086;16.282;2022-10-13T03:25:54;23.50;82.70
12922;DHT22;6528;48.086;16.282;2022-10-13T03:28:22;23.50;82.70
12922;DHT22;6528;48.086;16.282;2022-10-13T03:30:48;23.50;82.70
12922;DHT22;6528;48.086;16.282;2022-10-13T03:33:15;23.50;82.60
12922;DHT22;6528;48.086;16.282;2022-10-13T03:35:42;23.40;82.50
12922;DHT22;6528;48.086;16.282;2022-10-13T03:38:09;23.50;82.60
12922;DHT22;6528;48.086;16.282;2022-10-13T03:40:36;23.50;82.60
12922;DHT22;6528;48.086;16.282;2022-10-13T03:43:03;23.40;82.60
12922;DHT22;6528;48.086;16.282;2022-10-13T03:45:29;23.50;82.60
12922;DHT22;6528;48.086;16.282;2022-10-13T03:47:57;23.40;82.50
12922;DHT22;6528;48.086;16.282;2022-10-13T03:50:24;23.50;82.70
12922;DHT22;6528;48.086;16.282;2022-10-13T03:52:50;23.40;82.60
12922;DHT22;6528;48.086;16.282;2022-10-13T03:55:17;23.40;82.50
12922;DHT22;6528;48.086;16.282;2022-10-13T03:57:44;23.40;82.50
12922;DHT22;6528;48.086;16.282;2022-10-13T04:00:11;23.50;82.70
12922;DHT22;6528;48.086;16.282;2022-10-13T04:02:38;23.40;83.30
12922;DHT22;6528;48.086;16.282;2022-10-13T04:05:05;23.40;82.60
12922;DHT22;6528;48.086;16.282;2022-10-13T04:07:32;23.40;82.50
12922;DHT22;6528;48.086;16.282;2022-10-13T04:09:59;23.40;82.60
12922;DHT22;6528;48.086;16.282;2022-10-13T04:12:25;23.40;82.50
12922;DHT22;6528;48.086;16.282;2022-10-13T04:14:53;23.40;82.50
12922;DHT22;6528;48.086;16.282;2022-10-13T04:17:19;23.40;82.50
12922;DHT22;6528;48.086;16.282;2022-10-13T04:19:52;23.40;82.50
12922;DHT22;6528;48.086;16.282;2022-10-13T04:22:20;23.40;82.60
12922;DHT22;6528;48.086;16.282;2022-10-13T04:24:47;23.40;82.50
12922;DHT22;6528;48.086;16.282;2022-10-13T04:27:14;23.40;82.50
12922;DHT22;6528;48.086;16.282;2022-10-13T04:29:42;23.30;82.50
12922;DHT22;6528;48.086;16.282;2022-10-13T04:32:09;23.40;82.60
12922;DHT22;6528;48.086;16.282;2022-10-13T04:34:37;23.30;82.50
12922;DHT22;6528;48.086;16.282;2022-10-13T04:37:04;23.30;82.50
12922;DHT22;6528;48.086;16.282;2022-10-13T04:39:30;23.40;82.60
12922;DHT22;6528;48.086;16.282;2022-10-13T04:41:57;23.30;82.50
12922;DHT22;6528;48.086;16.282;2022-10-13T04:44:24;23.30;82.40
12922;DHT22;6528;48.086;16.282;2022-10-13T04:46:51;23.40;82.50
12922;DHT22;6528;48.086;16.282;2022-10-13T04:49:18;23.30;82.50
12922;DHT22;6528;48.086;16.282;2022-10-13T04:51:44;23.40;82.60
12922;DHT22;6528;48.086;16.282;2022-10-13T04:54:11;23.30;82.50
12922;DHT22;6528;48.086;16.282;2022-10-13T04:56:38;23.30;82.50
12922;DHT22;6528;48.086;16.282;2022-10-13T04:59:05;23.30;82.40
12922;DHT22;6528;48.086;16.282;2022-10-13T05:01:32;23.40;82.60
12922;DHT22;6528;48.086;16.282;2022-10-13T05:04:01;23.30;82.50
12922;DHT22;6528;48.086;16.282;2022-10-13T05:06:34;23.40;82.60
12922;DHT22;6528;48.086;16.282;2022-10-13T05:09:01;23.40;82.60
12922;DHT22;6528;48.086;16.282;2022-10-13T05:11:28;23.40;82.50
12922;DHT22;6528;48.086;16.282;2022-10-13T05:13:56;23.40;82.60
12922;DHT22;6528;48.086;16.282;2022-10-13T05:16:23;23.30;82.90
12922;DHT22;6528;48.086;16.282;2022-10-13T05:18:51;23.30;82.40
12922;DHT22;6528;48.086;16.282;2022-10-13T05:21:21;23.30;82.40
12922;DHT22;6528;48.086;16.282;2022-10-13T05:23:48;23.30;82.40
12922;DHT22;6528;48.086;16.282;2022-10-13T05:26:16;23.30;82.40
12922;DHT22;6528;48.086;16.282;2022-10-13T05:28:43;23.30;82.40
12922;DHT22;6528;48.086;16.282;2022-10-13T05:31:14;23.40;82.60
12922;DHT22;6528;48.086;16.282;2022-10-13T05:33:42;23.30;82.40
12922;DHT22;6528;48.086;16.282;2022-10-13T05:36:18;23.30;82.40
12922;DHT22;6528;48.086;16.282;2022-10-13T05:38:52;23.30;82.40
12922;DHT22;6528;48.086;16.282;2022-10-13T05:41:20;23.30;82.40
12922;DHT22;6528;48.086;16.282;2022-10-13T05:43:48;23.30;82.40
12922;DHT22;6528;48.086;16.282;2022-10-13T05:46:16;23.30;82.40
12922;DHT22;6528;48.086;16.282;2022-10-13T05:48:43;23.30;82.40
12922;DHT22;6528;48.086;16.282;2022-10-13T05:51:12;23.30;82.40
12922;DHT22;6528;48.086;16.282;2022-10-13T05:53:42;23.30;82.40
12922;DHT22;6528;48.086;16.282;2022-10-13T05:56:20;23.30;82.40
12922;DHT22;6528;48.086;16.282;2022-10-13T05:58:52;23.30;82.40
12922;DHT22;6528;48.086;16.282;2022-10-13T06:01:22;23.30;82.40
12922;DHT22;6528;48.086;16.282;2022-10-13T06:03:52;23.30;82.40
12922;DHT22;6528;48.086;16.282;2022-10-13T06:06:22;23.30;82.40
12922;DHT22;6528;48.086;16.282;2022-10-13T06:08:56;23.30;82.50
12922;DHT22;6528;48.086;16.282;2022-10-13T06:11:23;23.30;82.40
12922;DHT22;6528;48.086;16.282;2022-10-13T06:13:49;23.30;82.40
12922;DHT22;6528;48.086;16.282;2022-10-13T06:16:16;23.30;82.50
12922;DHT22;6528;48.086;16.282;2022-10-13T06:18:43;23.30;82.40
12922;DHT22;6528;48.086;16.282;2022-10-13T06:21:10;23.40;82.50
12922;DHT22;6528;48.086;16.282;2022-10-13T06:23:37;23.40;82.60
12922;DHT22;6528;48.086;16.282;2022-10-13T06:26:06;23.30;82.40
12922;DHT22;6528;48.086;16.282;2022-10-13T06:28:33;23.30;82.40
12922;DHT22;6528;48.086;16.282;2022-10-13T06:31:02;23.30;82.50
12922;DHT22;6528;48.086;16.282;2022-10-13T06:33:29;23.30;82.40
12922;DHT22;6528;48.086;16.282;2022-10-13T06:35:59;23.40;82.50
12922;DHT22;6528;48.086;16.282;2022-10-13T06:38:26;23.40;82.50
12922;DHT22;6528;48.086;16.282;2022-10-13T06:40:53;23.30;82.40
12922;DHT22;6528;48.086;16.282;2022-10-13T06:43:19;23.30;82.40
12922;DHT22;6528;48.086;16.282;2022-10-13T06:45:46;23.30;82.40
12922;DHT22;6528;48.086;16.282;2022-10-13T06:48:13;23.40;82.50
12922;DHT22;6528;48.086;16.282;2022-10-13T06:50:40;23.40;82.50
12922;DHT22;6528;48.086;16.282;2022-10-13T06:53:08;23.40;82.50
12922;DHT22;6528;48.086;16.282;2022-10-13T06:55:35;23.30;82.40
12922;DHT22;6528;48.086;16.282;2022-10-13T06:58:02;23.30;82.50
12922;DHT22;6528;48.086;16.282;2022-10-13T07:00:28;23.30;82.50
12922;DHT22;6528;48.086;16.282;2022-10-13T07:02:55;23.40;82.70
12922;DHT22;6528;48.086;16.282;2022-10-13T07:05:22;23.40;82.70
12922;DHT22;6528;48.086;16.282;2022-10-13T07:07:51;23.30;82.60
12922;DHT22;6528;48.086;16.282;2022-10-13T07:10:19;23.30;82.60
12922;DHT22;6528;48.086;16.282;2022-10-13T07:12:46;23.40;82.80
12922;DHT22;6528;48.086;16.282;2022-10-13T07:15:12;23.40;82.80
12922;DHT22;6528;48.086;16.282;2022-10-13T07:17:39;23.40;82.80
12922;DHT22;6528;48.086;16.282;2022-10-13T07:20:06;23.40;82.90
12922;DHT22;6528;48.086;16.282;2022-10-13T07:22:33;23.40;82.80
12922;DHT22;6528;48.086;16.282;2022-10-13T07:25:00;23.40;82.80
12922;DHT22;6528;48.086;16.282;2022-10-13T07:27:27;23.40;82.70
12922;DHT22;6528;48.086;16.282;2022-10-13T07:29:53;23.40;82.70
12922;DHT22;6528;48.086;16.282;2022-10-13T07:32:21;23.40;82.80
12922;DHT22;6528;48.086;16.282;2022-10-13T07:34:51;23.40;82.80
12922;DHT22;6528;48.086;16.282;2022-10-13T07:37:18;23.40;82.70
12922;DHT22;6528;48.086;16.282;2022-10-13T07:39:45;23.40;82.70
12922;DHT22;6528;48.086;16.282;2022-10-13T07:42:12;23.40;82.70
12922;DHT22;6528;48.086;16.282;2022-10-13T07:44:39;23.40;82.70
12922;DHT22;6528;48.086;16.282;2022-10-13T07:47:06;23.40;82.70
12922;DHT22;6528;48.086;16.282;2022-10-13T07:49:32;23.40;82.70
12922;DHT22;6528;48.086;16.282;2022-10-13T07:51:59;23.40;82.70
12922;DHT22;6528;48.086;16.282;2022-10-13T07:54:26;23.40;82.70
12922;DHT22;6528;48.086;16.282;2022-10-13T07:56:54;23.40;82.70
12922;DHT22;6528;48.086;16.282;2022-10-13T07:59:21;23.40;82.70
12922;DHT22;6528;48.086;16.282;2022-10-13T08:01:48;23.40;82.70
12922;DHT22;6528;48.086;16.282;2022-10-13T08:04:15;23.50;82.80
12922;DHT22;6528;48.086;16.282;2022-10-13T08:06:42;23.40;82.70
12922;DHT22;6528;48.086;16.282;2022-10-13T08:09:09;23.40;82.60
12922;DHT22;6528;48.086;16.282;2022-10-13T08:11:35;23.40;82.60
12922;DHT22;6528;48.086;16.282;2022-10-13T08:14:02;23.40;82.60
12922;DHT22;6528;48.086;16.282;2022-10-13T08:16:30;23.40;82.60
12922;DHT22;6528;48.086;16.282;2022-10-13T08:18:58;23.50;82.70
12922;DHT22;6528;48.086;16.282;2022-10-13T08:21:27;23.50;82.70
12922;DHT22;6528;48.086;16.282;2022-10-13T08:24:16;23.40;82.60
12922;DHT22;6528;48.086;16.282;2022-10-13T08:26:44;23.50;82.80
12922;DHT22;6528;48.086;16.282;2022-10-13T08:29:12;23.50;82.70
12922;DHT22;6528;48.086;16.282;2022-10-13T08:31:50;23.50;83.50
12922;DHT22;6528;48.086;16.282;2022-10-13T08:34:17;23.50;82.80
12922;DHT22;6528;48.086;16.282;2022-10-13T08:36:44;23.50;82.80
12922;DHT22;6528;48.086;16.282;2022-10-13T08:39:11;23.50;82.70
12922;DHT22;6528;48.086;16.282;2022-10-13T08:41:42;23.50;82.80
12922;DHT22;6528;48.086;16.282;2022-10-13T08:44:22;23.50;82.80
12922;DHT22;6528;48.086;16.282;2022-10-13T08:47:14;23.50;82.70
12922;DHT22;6528;48.086;16.282;2022-10-13T08:49:42;23.50;82.80
12922;DHT22;6528;48.086;16.282;2022-10-13T08:52:24;23.50;82.90
12922;DHT22;6528;48.086;16.282;2022-10-13T08:54:52;23.50;82.80
12922;DHT22;6528;48.086;16.282;2022-10-13T08:57:20;23.50;82.90
12922;DHT22;6528;48.086;16.282;2022-10-13T08:59:48;23.50;82.80
12922;DHT22;6528;48.086;16.282;2022-10-13T09:02:23;23.50;82.90
12922;DHT22;6528;48.086;16.282;2022-10-13T09:04:52;23.50;82.90
12922;DHT22;6528;48.086;16.282;2022-10-13T09:07:28;23.50;82.90
12922;DHT22;6528;48.086;16.282;2022-10-13T09:09:56;23.50;83.00
12922;DHT22;6528;48.086;16.282;2022-10-13T09:12:24;23.50;82.90
12922;DHT22;6528;48.086;16.282;2022-10-13T09:15:02;23.50;82.90
12922;DHT22;6528;48.086;16.282;2022-10-13T09:17:32;23.50;82.90
12922;DHT22;6528;48.086;16.282;2022-10-13T09:20:23;23.50;82.90
12922;DHT22;6528;48.086;16.282;2022-10-13T09:23:18;23.50;82.90
12922;DHT22;6528;48.086;16.282;2022-10-13T09:25:50;23.50;82.90
12922;DHT22;6528;48.086;16.282;2022-10-13T09:28:22;23.50;82.90
12922;DHT22;6528;48.086;16.282;2022-10-13T09:31:05;23.50;82.90
12922;DHT22;6528;48.086;16.282;2022-10-13T09:33:39;23.50;83.00
12922;DHT22;6528;48.086;16.282;2022-10-13T09:36:09;23.50;82.90
12922;DHT22;6528;48.086;16.282;2022-10-13T09:38:37;23.50;82.90
12922;DHT22;6528;48.086;16.282;2022-10-13T09:41:18;23.50;83.00
12922;DHT22;6528;48.086;16.282;2022-10-13T09:46:24;23.50;83.10
12922;DHT22;6528;48.086;16.282;2022-10-13T09:48:53;23.50;83.00
12922;DHT22;6528;48.086;16.282;2022-10-13T09:53:56;23.50;83.00
12922;DHT22;6528;48.086;16.282;2022-10-13T09:56:46;23.50;82.90
12922;DHT22;6528;48.086;16.282;2022-10-13T10:01:44;23.50;83.00
12922;DHT22;6528;48.086;16.282;2022-10-13T10:04:15;23.50;83.00
12922;DHT22;6528;48.086;16.282;2022-10-13T10:06:44;23.50;83.00
12922;DHT22;6528;48.086;16.282;2022-10-13T10:09:36;23.50;83.00
12922;DHT22;6528;48.086;16.282;2022-10-13T10:12:04;23.50;83.00
12922;DHT22;6528;48.086;16.282;2022-10-13T10:14:34;23.50;83.00
12922;DHT22;6528;48.086;16.282;2022-10-13T10:17:22;23.50;83.00
12922;DHT22;6528;48.086;16.282;2022-10-13T10:25:46;23.50;83.00
12922;DHT22;6528;48.086;16.282;2022-10-13T10:34:26;23.50;83.00
12922;DHT22;6528;48.086;16.282;2022-10-13T10:39:40;23.50;83.00
12922;DHT22;6528;48.086;16.282;2022-10-13T10:44:54;23.50;83.00
12922;DHT22;6528;48.086;16.282;2022-10-13T10:47:38;23.50;83.00
12922;DHT22;6528;48.086;16.282;2022-10-13T10:50:07;23.50;83.00
12922;DHT22;6528;48.086;16.282;2022-10-13T10:52:49;23.50;83.00
12922;DHT22;6528;48.086;16.282;2022-10-13T10:55:47;23.50;83.00
12922;DHT22;6528;48.086;16.282;2022-10-13T11:06:32;23.50;83.00
12922;DHT22;6528;48.086;16.282;2022-10-13T11:08:59;23.50;83.00
12922;DHT22;6528;48.086;16.282;2022-10-13T11:24:47;23.50;83.00
12922;DHT22;6528;48.086;16.282;2022-10-13T11:37:56;23.60;83.10
12922;DHT22;6528;48.086;16.282;2022-10-13T11:43:40;23.60;83.20
12922;DHT22;6528;48.086;16.282;2022-10-13T11:49:42;23.60;83.10
12922;DHT22;6528;48.086;16.282;2022-10-13T11:52:30;23.60;83.10
12922;DHT22;6528;48.086;16.282;2022-10-13T11:55:11;23.60;83.10
12922;DHT22;6528;48.086;16.282;2022-10-13T11:57:40;23.60;83.10
12922;DHT22;6528;48.086;16.282;2022-10-13T12:00:15;23.60;83.00
12922;DHT22;6528;48.086;16.282;2022-10-13T12:02:50;23.60;83.00
12922;DHT22;6528;48.086;16.282;2022-10-13T12:05:26;23.60;83.00
12922;DHT22;6528;48.086;16.282;2022-10-13T12:07:57;23.60;83.10
12922;DHT22;6528;48.086;16.282;2022-10-13T12:12:58;23.60;83.10
12922;DHT22;6528;48.086;16.282;2022-10-13T12:15:40;23.60;83.10
12922;DHT22;6528;48.086;16.282;2022-10-13T12:18:28;23.60;83.10
12922;DHT22;6528;48.086;16.282;2022-10-13T12:21:11;23.60;83.10
12922;DHT22;6528;48.086;16.282;2022-10-13T12:23:39;23.60;83.10
12922;DHT22;6528;48.086;16.282;2022-10-13T12:26:06;23.60;83.10
12922;DHT22;6528;48.086;16.282;2022-10-13T12:33:57;23.60;83.10
12922;DHT22;6528;48.086;16.282;2022-10-13T12:36:30;23.60;83.10
12922;DHT22;6528;48.086;16.282;2022-10-13T12:39:06;23.60;83.90
12922;DHT22;6528;48.086;16.282;2022-10-13T12:41:46;23.60;83.10
12922;DHT22;6528;48.086;16.282;2022-10-13T12:44:19;23.60;83.00
12922;DHT22;6528;48.086;16.282;2022-10-13T12:46:48;23.60;83.00
12922;DHT22;6528;48.086;16.282;2022-10-13T12:49:22;23.60;83.00
12922;DHT22;6528;48.086;16.282;2022-10-13T12:51:55;23.60;83.10
12922;DHT22;6528;48.086;16.282;2022-10-13T12:54:26;23.60;83.00
12922;DHT22;6528;48.086;16.282;2022-10-13T12:56:57;23.60;83.00
12922;DHT22;6528;48.086;16.282;2022-10-13T12:59:26;23.60;83.10
12922;DHT22;6528;48.086;16.282;2022-10-13T13:02:02;23.60;83.00
12922;DHT22;6528;48.086;16.282;2022-10-13T13:04:40;23.60;83.00
12922;DHT22;6528;48.086;16.282;2022-10-13T13:07:34;23.60;83.10
12922;DHT22;6528;48.086;16.282;2022-10-13T13:10:17;23.60;83.10
12922;DHT22;6528;48.086;16.282;2022-10-13T13:12:46;23.60;83.10
12922;DHT22;6528;48.086;16.282;2022-10-13T13:15:34;23.60;83.10
12922;DHT22;6528;48.086;16.282;2022-10-13T13:18:33;23.60;83.20
12922;DHT22;6528;48.086;16.282;2022-10-13T13:21:05;23.60;83.10
12922;DHT22;6528;48.086;16.282;2022-10-13T13:23:32;23.60;83.10
12922;DHT22;6528;48.086;16.282;2022-10-13T13:28:29;23.60;83.20
12922;DHT22;6528;48.086;16.282;2022-10-13T13:30:56;23.70;83.30
12922;DHT22;6528;48.086;16.282;2022-10-13T13:33:24;23.60;83.20
12922;DHT22;6528;48.086;16.282;2022-10-13T13:35:51;23.60;83.20
12922;DHT22;6528;48.086;16.282;2022-10-13T13:38:19;23.60;83.20
12922;DHT22;6528;48.086;16.282;2022-10-13T13:40:45;23.60;83.20
12922;DHT22;6528;48.086;16.282;2022-10-13T13:43:12;23.60;83.20
12922;DHT22;6528;48.086;16.282;2022-10-13T13:45:39;23.60;83.20
12922;DHT22;6528;48.086;16.282;2022-10-13T13:48:06;23.60;83.20
12922;DHT22;6528;48.086;16.282;2022-10-13T13:50:35;23.60;83.20
12922;DHT22;6528;48.086;16.282;2022-10-13T13:53:03;23.60;83.20
12922;DHT22;6528;48.086;16.282;2022-10-13T13:55:30;23.60;83.20
12922;DHT22;6528;48.086;16.282;2022-10-13T13:57:57;23.60;83.20
12922;DHT22;6528;48.086;16.282;2022-10-13T14:00:24;23.60;83.20
12922;DHT22;6528;48.086;16.282;2022-10-13T14:02:51;23.60;83.20
12922;DHT22;6528;48.086;16.282;2022-10-13T14:05:18;23.60;83.20
12922;DHT22;6528;48.086;16.282;2022-10-13T14:07:44;23.60;83.20
12922;DHT22;6528;48.086;16.282;2022-10-13T14:10:11;23.60;83.20
12922;DHT22;6528;48.086;16.282;2022-10-13T14:12:38;23.60;83.30
12922;DHT22;6528;48.086;16.282;2022-10-13T14:15:05;23.70;83.40
12922;DHT22;6528;48.086;16.282;2022-10-13T14:17:32;23.60;83.20
12922;DHT22;6528;48.086;16.282;2022-10-13T14:19:59;23.60;83.20
12922;DHT22;6528;48.086;16.282;2022-10-13T14:22:26;23.70;83.30
12922;DHT22;6528;48.086;16.282;2022-10-13T14:24:53;23.60;83.30
12922;DHT22;6528;48.086;16.282;2022-10-13T14:27:20;23.60;83.30
12922;DHT22;6528;48.086;16.282;2022-10-13T14:29:47;23.60;83.30
12922;DHT22;6528;48.086;16.282;2022-10-13T14:32:14;23.60;83.30
12922;DHT22;6528;48.086;16.282;2022-10-13T14:34:41;23.60;83.30
12922;DHT22;6528;48.086;16.282;2022-10-13T14:37:07;23.60;83.30
12922;DHT22;6528;48.086;16.282;2022-10-13T14:39:34;23.60;83.30
12922;DHT22;6528;48.086;16.282;2022-10-13T14:42:01;23.60;83.30
12922;DHT22;6528;48.086;16.282;2022-10-13T14:44:27;23.60;83.30
12922;DHT22;6528;48.086;16.282;2022-10-13T14:46:54;23.60;83.30
12922;DHT22;6528;48.086;16.282;2022-10-13T14:49:21;23.60;83.30
12922;DHT22;6528;48.086;16.282;2022-10-13T14:51:48;23.60;83.40
12922;DHT22;6528;48.086;16.282;2022-10-13T14:54:15;23.60;83.40
12922;DHT22;6528;48.086;16.282;2022-10-13T14:56:42;23.60;83.40
12922;DHT22;6528;48.086;16.282;2022-10-13T14:59:11;23.60;83.40
12922;DHT22;6528;48.086;16.282;2022-10-13T15:01:39;23.60;83.40
12922;DHT22;6528;48.086;16.282;2022-10-13T15:04:07;23.60;83.40
12922;DHT22;6528;48.086;16.282;2022-10-13T15:06:35;23.60;83.50
12922;DHT22;6528;48.086;16.282;2022-10-13T15:09:02;23.60;83.50
12922;DHT22;6528;48.086;16.282;2022-10-13T15:11:29;23.60;83.40
12922;DHT22;6528;48.086;16.282;2022-10-13T15:13:56;23.60;83.40
12922;DHT22;6528;48.086;16.282;2022-10-13T15:16:28;23.60;83.50
12922;DHT22;6528;48.086;16.282;2022-10-13T15:18:55;23.60;83.50
12922;DHT22;6528;48.086;16.282;2022-10-13T15:21:23;23.60;83.80
12922;DHT22;6528;48.086;16.282;2022-10-13T15:23:50;23.60;83.50
12922;DHT22;6528;48.086;16.282;2022-10-13T15:26:18;23.60;83.50
12922;DHT22;6528;48.086;16.282;2022-10-13T15:28:48;23.60;83.50
12922;DHT22;6528;48.086;16.282;2022-10-13T15:31:17;23.60;83.50
12922;DHT22;6528;48.086;16.282;2022-10-13T15:33:45;23.60;83.60
12922;DHT22;6528;48.086;16.282;2022-10-13T15:36:12;23.60;83.60
12922;DHT22;6528;48.086;16.282;2022-10-13T15:38:39;23.60;83.60
12922;DHT22;6528;48.086;16.282;2022-10-13T15:41:06;23.60;83.60
12922;DHT22;6528;48.086;16.282;2022-10-13T15:43:33;23.60;83.60
12922;DHT22;6528;48.086;16.282;2022-10-13T15:46:06;23.60;83.60
12922;DHT22;6528;48.086;16.282;2022-10-13T15:48:33;23.60;84.50
12922;DHT22;6528;48.086;16.282;2022-10-13T15:51:00;23.60;83.60
12922;DHT22;6528;48.086;16.282;2022-10-13T15:53:28;23.60;83.70
12922;DHT22;6528;48.086;16.282;2022-10-13T15:55:55;23.60;83.70
12922;DHT22;6528;48.086;16.282;2022-10-13T15:58:22;23.60;83.80
12922;DHT22;6528;48.086;16.282;2022-10-13T16:00:49;23.60;83.80
12922;DHT22;6528;48.086;16.282;2022-10-13T16:03:17;23.60;83.80
12922;DHT22;6528;48.086;16.282;2022-10-13T16:05:45;23.60;83.80
12922;DHT22;6528;48.086;16.282;2022-10-13T16:08:13;23.50;83.70
12922;DHT22;6528;48.086;16.282;2022-10-13T16:10:41;23.50;83.80
12922;DHT22;6528;48.086;16.282;2022-10-13T16:13:11;23.60;83.90
12922;DHT22;6528;48.086;16.282;2022-10-13T16:15:38;23.50;83.80
12922;DHT22;6528;48.086;16.282;2022-10-13T16:18:06;23.50;83.80
12922;DHT22;6528;48.086;16.282;2022-10-13T16:20:33;23.50;83.80
12922;DHT22;6528;48.086;16.282;2022-10-13T16:23:03;23.50;83.80
12922;DHT22;6528;48.086;16.282;2022-10-13T16:25:30;23.50;83.80
12922;DHT22;6528;48.086;16.282;2022-10-13T16:27:57;23.50;83.80
12922;DHT22;6528;48.086;16.282;2022-10-13T16:30:27;23.50;83.80
12922;DHT22;6528;48.086;16.282;2022-10-13T16:32:56;23.50;83.80
12922;DHT22;6528;48.086;16.282;2022-10-13T16:35:23;23.50;84.60
12922;DHT22;6528;48.086;16.282;2022-10-13T16:37:50;23.50;83.80
12922;DHT22;6528;48.086;16.282;2022-10-13T16:40:17;23.60;83.90
12922;DHT22;6528;48.086;16.282;2022-10-13T16:42:43;23.50;83.80
12922;DHT22;6528;48.086;16.282;2022-10-13T16:45:10;23.50;83.80
12922;DHT22;6528;48.086;16.282;2022-10-13T16:47:38;23.50;83.90
12922;DHT22;6528;48.086;16.282;2022-10-13T16:50:05;23.50;83.80
12922;DHT22;6528;48.086;16.282;2022-10-13T16:52:36;23.50;83.80
12922;DHT22;6528;48.086;16.282;2022-10-13T16:59:04;23.50;83.90
12922;DHT22;6528;48.086;16.282;2022-10-13T17:05:51;23.50;83.90
12922;DHT22;6528;48.086;16.282;2022-10-13T17:08:18;23.50;83.90
12922;DHT22;6528;48.086;16.282;2022-10-13T17:10:45;23.50;83.90
12922;DHT22;6528;48.086;16.282;2022-10-13T17:13:14;23.50;83.90
12922;DHT22;6528;48.086;16.282;2022-10-13T17:15:51;23.50;83.90
12922;DHT22;6528;48.086;16.282;2022-10-13T17:18:18;23.50;83.90
12922;DHT22;6528;48.086;16.282;2022-10-13T17:20:56;23.50;83.90
12922;DHT22;6528;48.086;16.282;2022-10-13T17:23:24;23.50;84.70
12922;DHT22;6528;48.086;16.282;2022-10-13T17:25:51;23.50;83.90
12922;DHT22;6528;48.086;16.282;2022-10-13T17:28:19;23.50;84.00
12922;DHT22;6528;48.086;16.282;2022-10-13T17:31:17;23.50;83.90